Contact Us:
Email: info@sawbill.com
Phone: (218)663-7150
Fax: (218)663-7980
Mail: 4620 Sawbill Trail
Box 2129
Tofte, MN 55615


Powered by
Movable Type 3.15
 
Sawbill Weather History Archives: February 2004
Current Sawbill Weather History | « January 2004 | March 2004 »


Date

High
Temperature

Low
Temperature

Barometric
Pressure

Relative
Humidity 7AM

9 AM
Temperature

Moisture

Snow

02/29/04 45 31 29.82 75% 34 0  
02/28/04 53 28 30.06 77% 31 0  
02/27/04 44 19 30.11 73% 28 0  
02/26/04 44 18 30.27 72% 19 0  
02/25/04 44 6 30.21 81% 25 0  
02/23/04 39 24 30.32 76% 27 0  
02/22/04 33 26 30.14 76% 29 .03" .75"
02/21/04 34 7 30.04 65% 33 .02" 1"
02/20/04 31 25 29.79 74% 25 Trace Trace
02/19/04 33 27 29.65 77% 28 0  
02/18/04 43 24 29.94 69% 27 0  
02/17/04 32 4 29.85 74% 24 0  
02/16/04 19 3 30.28 62% 4 .05" 3"
02/15/04 17 -13 30.22 70% 12 Trace Trace
02/14/04 11 -13 30.26 48% -13 0  
02/13/04 34 -7 30.08 48% -6 0  
02/12/04 36 5 29.65 49% 10 0  
02/11/04 24 0 30.21 64% 5 0  
02/10/04 24 12 29.94 69% 16 0  
02/09/04 33 9 29.89 50% 13 .04" 2.5"
02/08/04 31 17 29.65 74% 21 .11" 2"
02/07/04 28 -6 29.85 52% 19 0  
02/06/04 33 -6 30.19 55% -6 .07" 2"
02/05/04 29 17 30.01 75% 20 .12" 2.5"
02/04/04 24 -8 30.38 75% 17 .03" 1"
02/03/04 12 -8 30.24 51% -8 0  
02/02/04 30 -3 29.98 45% -3 .26" 3"
02/01/04 23 15 30.12 73% 19 .1" 2"
 


Home I Trip Planning I Rentals and Outfitting I Reservations I Campgrounds I Sawbill Store I Sawbill News I Contact

© 1997 - 2017, Sawbill Canoe Outfitters, Inc. I Privacy Policy